Terminal Aerodrome Forecast
Issued by NWS Blacksburg, VA

Home | Current Version | Previous Version | Text Only | Print | Product List | Glossary On
Versions: 1 2 3 4 5 6 7 8 9 10 11 12
000
FTUS41 KRNK 200539 AAA
TAFROA
TAF AMD
KROA 200539Z 2006/2106 00000KT P6SM BKN110
     FM201800 31005KT P6SM BKN100
     FM210100 00000KT P6SM SCT100=

USA.gov is the U.S. government's official web portal to all federal, state and local government web resources and services.